sensor_id;sensor_type;location;lat;lon;timestamp;P1;durP1;ratioP1;P2;durP2;ratioP2
17638;SDS011;8938;53.546;9.954;2023-06-10T00:00:41;0.30;;;0.30;;
17638;SDS011;8938;53.546;9.954;2023-06-10T00:03:07;0.20;;;0.20;;
17638;SDS011;8938;53.546;9.954;2023-06-10T00:05:34;0.30;;;0.30;;
17638;SDS011;8938;53.546;9.954;2023-06-10T00:08:01;0.30;;;0.30;;
17638;SDS011;8938;53.546;9.954;2023-06-10T00:10:32;0.30;;;0.30;;
17638;SDS011;8938;53.546;9.954;2023-06-10T00:13:02;0.30;;;0.30;;
17638;SDS011;8938;53.546;9.954;2023-06-10T00:15:28;0.30;;;0.30;;
17638;SDS011;8938;53.546;9.954;2023-06-10T00:17:54;0.20;;;0.20;;
17638;SDS011;8938;53.546;9.954;2023-06-10T00:20:20;0.30;;;0.30;;
17638;SDS011;8938;53.546;9.954;2023-06-10T00:22:50;0.20;;;0.20;;
17638;SDS011;8938;53.546;9.954;2023-06-10T00:25:17;0.30;;;0.30;;
17638;SDS011;8938;53.546;9.954;2023-06-10T00:27:43;0.30;;;0.30;;
17638;SDS011;8938;53.546;9.954;2023-06-10T00:30:09;0.30;;;0.30;;
17638;SDS011;8938;53.546;9.954;2023-06-10T00:32:35;0.30;;;0.30;;
17638;SDS011;8938;53.546;9.954;2023-06-10T00:35:02;0.20;;;0.20;;
17638;SDS011;8938;53.546;9.954;2023-06-10T00:37:28;0.30;;;0.30;;
17638;SDS011;8938;53.546;9.954;2023-06-10T00:39:57;0.20;;;0.20;;
17638;SDS011;8938;53.546;9.954;2023-06-10T00:42:23;0.20;;;0.20;;
17638;SDS011;8938;53.546;9.954;2023-06-10T00:44:50;0.20;;;0.20;;
17638;SDS011;8938;53.546;9.954;2023-06-10T00:47:15;0.30;;;0.30;;
17638;SDS011;8938;53.546;9.954;2023-06-10T00:49:41;0.30;;;0.30;;
17638;SDS011;8938;53.546;9.954;2023-06-10T00:52:07;0.20;;;0.20;;
17638;SDS011;8938;53.546;9.954;2023-06-10T00:54:33;0.30;;;0.30;;
17638;SDS011;8938;53.546;9.954;2023-06-10T00:57:00;0.30;;;0.30;;
17638;SDS011;8938;53.546;9.954;2023-06-10T00:59:28;0.30;;;0.30;;
17638;SDS011;8938;53.546;9.954;2023-06-10T01:01:54;0.30;;;0.30;;
17638;SDS011;8938;53.546;9.954;2023-06-10T01:04:21;0.20;;;0.20;;
17638;SDS011;8938;53.546;9.954;2023-06-10T01:12:19;0.30;;;0.30;;
17638;SDS011;8938;53.546;9.954;2023-06-10T01:14:57;0.30;;;0.30;;
17638;SDS011;8938;53.546;9.954;2023-06-10T01:17:24;0.30;;;0.30;;
17638;SDS011;8938;53.546;9.954;2023-06-10T01:19:55;0.30;;;0.30;;
17638;SDS011;8938;53.546;9.954;2023-06-10T01:22:25;0.30;;;0.30;;
17638;SDS011;8938;53.546;9.954;2023-06-10T01:24:57;0.30;;;0.30;;
17638;SDS011;8938;53.546;9.954;2023-06-10T01:27:24;0.30;;;0.30;;
17638;SDS011;8938;53.546;9.954;2023-06-10T01:30:00;0.20;;;0.20;;
17638;SDS011;8938;53.546;9.954;2023-06-10T01:32:37;0.30;;;0.30;;
17638;SDS011;8938;53.546;9.954;2023-06-10T01:35:07;0.30;;;0.30;;
17638;SDS011;8938;53.546;9.954;2023-06-10T01:37:33;0.30;;;0.30;;
17638;SDS011;8938;53.546;9.954;2023-06-10T01:40:02;0.30;;;0.30;;
17638;SDS011;8938;53.546;9.954;2023-06-10T01:42:31;0.20;;;0.20;;
17638;SDS011;8938;53.546;9.954;2023-06-10T01:44:57;0.30;;;0.30;;
17638;SDS011;8938;53.546;9.954;2023-06-10T01:47:23;0.40;;;0.40;;
17638;SDS011;8938;53.546;9.954;2023-06-10T01:49:48;0.30;;;0.30;;
17638;SDS011;8938;53.546;9.954;2023-06-10T01:52:14;0.30;;;0.30;;
17638;SDS011;8938;53.546;9.954;2023-06-10T01:54:40;0.30;;;0.30;;
17638;SDS011;8938;53.546;9.954;2023-06-10T01:57:06;0.28;;;0.28;;
17638;SDS011;8938;53.546;9.954;2023-06-10T01:59:31;0.20;;;0.20;;
17638;SDS011;8938;53.546;9.954;2023-06-10T02:01:57;0.30;;;0.30;;
17638;SDS011;8938;53.546;9.954;2023-06-10T02:04:22;0.30;;;0.30;;
17638;SDS011;8938;53.546;9.954;2023-06-10T02:06:48;0.30;;;0.30;;
17638;SDS011;8938;53.546;9.954;2023-06-10T02:09:13;0.30;;;0.30;;
17638;SDS011;8938;53.546;9.954;2023-06-10T02:11:39;0.30;;;0.30;;
17638;SDS011;8938;53.546;9.954;2023-06-10T02:14:05;0.30;;;0.30;;
17638;SDS011;8938;53.546;9.954;2023-06-10T02:16:30;0.30;;;0.30;;
17638;SDS011;8938;53.546;9.954;2023-06-10T02:18:56;0.25;;;0.25;;
17638;SDS011;8938;53.546;9.954;2023-06-10T02:21:21;0.30;;;0.30;;
17638;SDS011;8938;53.546;9.954;2023-06-10T02:23:47;0.22;;;0.22;;
17638;SDS011;8938;53.546;9.954;2023-06-10T02:26:12;0.30;;;0.30;;
17638;SDS011;8938;53.546;9.954;2023-06-10T02:28:38;0.30;;;0.30;;
17638;SDS011;8938;53.546;9.954;2023-06-10T02:31:07;0.30;;;0.30;;
17638;SDS011;8938;53.546;9.954;2023-06-10T02:33:33;0.20;;;0.20;;
17638;SDS011;8938;53.546;9.954;2023-06-10T02:35:58;0.30;;;0.30;;
17638;SDS011;8938;53.546;9.954;2023-06-10T02:38:24;0.20;;;0.20;;
17638;SDS011;8938;53.546;9.954;2023-06-10T02:40:50;0.40;;;0.40;;
17638;SDS011;8938;53.546;9.954;2023-06-10T02:43:15;0.30;;;0.30;;
17638;SDS011;8938;53.546;9.954;2023-06-10T02:45:41;0.40;;;0.40;;
17638;SDS011;8938;53.546;9.954;2023-06-10T02:48:06;0.40;;;0.40;;
17638;SDS011;8938;53.546;9.954;2023-06-10T02:50:32;0.20;;;0.20;;
17638;SDS011;8938;53.546;9.954;2023-06-10T02:52:57;0.30;;;0.30;;
17638;SDS011;8938;53.546;9.954;2023-06-10T02:55:23;0.30;;;0.30;;
17638;SDS011;8938;53.546;9.954;2023-06-10T02:57:52;0.30;;;0.30;;
17638;SDS011;8938;53.546;9.954;2023-06-10T03:00:19;0.30;;;0.30;;
17638;SDS011;8938;53.546;9.954;2023-06-10T03:02:47;0.30;;;0.30;;
17638;SDS011;8938;53.546;9.954;2023-06-10T03:05:14;0.30;;;0.30;;
17638;SDS011;8938;53.546;9.954;2023-06-10T03:07:39;0.30;;;0.30;;
17638;SDS011;8938;53.546;9.954;2023-06-10T03:10:05;0.28;;;0.28;;
17638;SDS011;8938;53.546;9.954;2023-06-10T03:12:36;0.30;;;0.30;;
17638;SDS011;8938;53.546;9.954;2023-06-10T03:15:04;0.30;;;0.30;;
17638;SDS011;8938;53.546;9.954;2023-06-10T03:17:30;0.20;;;0.20;;
17638;SDS011;8938;53.546;9.954;2023-06-10T03:19:56;0.20;;;0.20;;
17638;SDS011;8938;53.546;9.954;2023-06-10T03:22:22;0.30;;;0.30;;
17638;SDS011;8938;53.546;9.954;2023-06-10T03:24:48;0.30;;;0.30;;
17638;SDS011;8938;53.546;9.954;2023-06-10T03:27:17;0.30;;;0.30;;
17638;SDS011;8938;53.546;9.954;2023-06-10T03:29:43;0.22;;;0.22;;
17638;SDS011;8938;53.546;9.954;2023-06-10T03:32:08;0.20;;;0.20;;
17638;SDS011;8938;53.546;9.954;2023-06-10T03:34:34;0.20;;;0.20;;
17638;SDS011;8938;53.546;9.954;2023-06-10T03:36:59;0.30;;;0.30;;
17638;SDS011;8938;53.546;9.954;2023-06-10T03:39:26;0.40;;;0.40;;
17638;SDS011;8938;53.546;9.954;2023-06-10T03:41:54;0.20;;;0.20;;
17638;SDS011;8938;53.546;9.954;2023-06-10T03:44:20;0.30;;;0.30;;
17638;SDS011;8938;53.546;9.954;2023-06-10T03:46:45;0.20;;;0.20;;
17638;SDS011;8938;53.546;9.954;2023-06-10T03:49:12;0.30;;;0.30;;
17638;SDS011;8938;53.546;9.954;2023-06-10T03:51:39;0.35;;;0.35;;
17638;SDS011;8938;53.546;9.954;2023-06-10T03:54:04;0.32;;;0.32;;
17638;SDS011;8938;53.546;9.954;2023-06-10T03:56:31;0.22;;;0.22;;
17638;SDS011;8938;53.546;9.954;2023-06-10T03:58:56;0.30;;;0.30;;
17638;SDS011;8938;53.546;9.954;2023-06-10T04:01:22;0.30;;;0.30;;
17638;SDS011;8938;53.546;9.954;2023-06-10T04:03:48;0.30;;;0.30;;
17638;SDS011;8938;53.546;9.954;2023-06-10T04:06:15;0.40;;;0.40;;
17638;SDS011;8938;53.546;9.954;2023-06-10T04:08:41;0.30;;;0.30;;
17638;SDS011;8938;53.546;9.954;2023-06-10T04:11:07;0.30;;;0.30;;
17638;SDS011;8938;53.546;9.954;2023-06-10T04:13:33;0.30;;;0.30;;
17638;SDS011;8938;53.546;9.954;2023-06-10T04:15:59;0.30;;;0.30;;
17638;SDS011;8938;53.546;9.954;2023-06-10T04:18:24;0.20;;;0.20;;
17638;SDS011;8938;53.546;9.954;2023-06-10T04:20:50;0.30;;;0.30;;
17638;SDS011;8938;53.546;9.954;2023-06-10T04:23:16;0.30;;;0.30;;
17638;SDS011;8938;53.546;9.954;2023-06-10T04:25:42;0.30;;;0.30;;
17638;SDS011;8938;53.546;9.954;2023-06-10T04:28:07;0.30;;;0.30;;
17638;SDS011;8938;53.546;9.954;2023-06-10T04:30:33;0.30;;;0.30;;
17638;SDS011;8938;53.546;9.954;2023-06-10T04:32:58;0.32;;;0.32;;
17638;SDS011;8938;53.546;9.954;2023-06-10T04:35:24;0.25;;;0.25;;
17638;SDS011;8938;53.546;9.954;2023-06-10T04:37:52;0.25;;;0.25;;
17638;SDS011;8938;53.546;9.954;2023-06-10T04:40:18;0.30;;;0.30;;
17638;SDS011;8938;53.546;9.954;2023-06-10T04:42:44;0.30;;;0.30;;
17638;SDS011;8938;53.546;9.954;2023-06-10T04:45:09;0.30;;;0.30;;
17638;SDS011;8938;53.546;9.954;2023-06-10T04:47:35;0.30;;;0.30;;
17638;SDS011;8938;53.546;9.954;2023-06-10T04:50:01;0.35;;;0.35;;
17638;SDS011;8938;53.546;9.954;2023-06-10T04:52:27;0.30;;;0.30;;
17638;SDS011;8938;53.546;9.954;2023-06-10T04:54:53;0.35;;;0.35;;
17638;SDS011;8938;53.546;9.954;2023-06-10T04:57:19;0.20;;;0.20;;
17638;SDS011;8938;53.546;9.954;2023-06-10T04:59:45;0.40;;;0.40;;
17638;SDS011;8938;53.546;9.954;2023-06-10T05:02:11;0.38;;;0.38;;
17638;SDS011;8938;53.546;9.954;2023-06-10T05:04:37;0.30;;;0.30;;
17638;SDS011;8938;53.546;9.954;2023-06-10T05:07:02;0.30;;;0.30;;
17638;SDS011;8938;53.546;9.954;2023-06-10T05:09:28;0.38;;;0.38;;
17638;SDS011;8938;53.546;9.954;2023-06-10T05:11:55;0.40;;;0.40;;
17638;SDS011;8938;53.546;9.954;2023-06-10T05:14:20;0.30;;;0.30;;
17638;SDS011;8938;53.546;9.954;2023-06-10T05:16:47;0.30;;;0.30;;
17638;SDS011;8938;53.546;9.954;2023-06-10T05:19:13;0.20;;;0.20;;
17638;SDS011;8938;53.546;9.954;2023-06-10T05:21:38;0.30;;;0.30;;
17638;SDS011;8938;53.546;9.954;2023-06-10T05:24:04;0.20;;;0.20;;
17638;SDS011;8938;53.546;9.954;2023-06-10T05:26:30;0.28;;;0.28;;
17638;SDS011;8938;53.546;9.954;2023-06-10T05:28:57;0.20;;;0.20;;
17638;SDS011;8938;53.546;9.954;2023-06-10T05:31:23;0.30;;;0.30;;
17638;SDS011;8938;53.546;9.954;2023-06-10T05:33:49;0.30;;;0.30;;
17638;SDS011;8938;53.546;9.954;2023-06-10T05:36:14;0.20;;;0.20;;
17638;SDS011;8938;53.546;9.954;2023-06-10T05:38:40;0.20;;;0.20;;
17638;SDS011;8938;53.546;9.954;2023-06-10T05:41:05;0.25;;;0.25;;
17638;SDS011;8938;53.546;9.954;2023-06-10T05:43:32;0.30;;;0.30;;
17638;SDS011;8938;53.546;9.954;2023-06-10T05:45:58;0.20;;;0.20;;
17638;SDS011;8938;53.546;9.954;2023-06-10T05:48:23;0.20;;;0.20;;
17638;SDS011;8938;53.546;9.954;2023-06-10T05:50:49;0.20;;;0.20;;
17638;SDS011;8938;53.546;9.954;2023-06-10T05:53:15;0.20;;;0.20;;
17638;SDS011;8938;53.546;9.954;2023-06-10T05:55:42;0.20;;;0.20;;
17638;SDS011;8938;53.546;9.954;2023-06-10T05:58:08;0.30;;;0.30;;
17638;SDS011;8938;53.546;9.954;2023-06-10T06:00:34;0.30;;;0.30;;
17638;SDS011;8938;53.546;9.954;2023-06-10T06:03:01;0.20;;;0.20;;
17638;SDS011;8938;53.546;9.954;2023-06-10T06:05:26;0.30;;;0.30;;
17638;SDS011;8938;53.546;9.954;2023-06-10T06:07:52;0.20;;;0.20;;
17638;SDS011;8938;53.546;9.954;2023-06-10T06:10:18;0.20;;;0.20;;
17638;SDS011;8938;53.546;9.954;2023-06-10T06:12:43;0.30;;;0.30;;
17638;SDS011;8938;53.546;9.954;2023-06-10T06:15:10;0.20;;;0.20;;
17638;SDS011;8938;53.546;9.954;2023-06-10T06:17:35;0.30;;;0.30;;
17638;SDS011;8938;53.546;9.954;2023-06-10T06:20:02;0.15;;;0.15;;
17638;SDS011;8938;53.546;9.954;2023-06-10T06:22:28;0.30;;;0.30;;
17638;SDS011;8938;53.546;9.954;2023-06-10T06:24:53;0.20;;;0.20;;
17638;SDS011;8938;53.546;9.954;2023-06-10T06:27:19;0.20;;;0.20;;
17638;SDS011;8938;53.546;9.954;2023-06-10T06:29:46;0.20;;;0.20;;
17638;SDS011;8938;53.546;9.954;2023-06-10T06:32:11;0.20;;;0.20;;
17638;SDS011;8938;53.546;9.954;2023-06-10T06:34:37;0.20;;;0.20;;
17638;SDS011;8938;53.546;9.954;2023-06-10T06:37:02;0.30;;;0.30;;
17638;SDS011;8938;53.546;9.954;2023-06-10T06:39:28;0.30;;;0.30;;
17638;SDS011;8938;53.546;9.954;2023-06-10T06:41:54;0.30;;;0.30;;
17638;SDS011;8938;53.546;9.954;2023-06-10T06:44:19;0.30;;;0.30;;
17638;SDS011;8938;53.546;9.954;2023-06-10T06:46:45;0.20;;;0.20;;
17638;SDS011;8938;53.546;9.954;2023-06-10T06:49:11;0.20;;;0.20;;
17638;SDS011;8938;53.546;9.954;2023-06-10T06:51:37;0.20;;;0.20;;
17638;SDS011;8938;53.546;9.954;2023-06-10T06:54:02;0.20;;;0.20;;
17638;SDS011;8938;53.546;9.954;2023-06-10T06:56:30;0.30;;;0.30;;
17638;SDS011;8938;53.546;9.954;2023-06-10T06:58:56;0.20;;;0.20;;
17638;SDS011;8938;53.546;9.954;2023-06-10T07:01:22;0.30;;;0.30;;
17638;SDS011;8938;53.546;9.954;2023-06-10T07:03:53;0.30;;;0.30;;
17638;SDS011;8938;53.546;9.954;2023-06-10T07:06:19;0.30;;;0.30;;
17638;SDS011;8938;53.546;9.954;2023-06-10T07:08:44;0.22;;;0.22;;
17638;SDS011;8938;53.546;9.954;2023-06-10T07:11:10;0.15;;;0.15;;
17638;SDS011;8938;53.546;9.954;2023-06-10T07:13:35;0.20;;;0.20;;
17638;SDS011;8938;53.546;9.954;2023-06-10T07:16:01;0.15;;;0.15;;
17638;SDS011;8938;53.546;9.954;2023-06-10T07:18:28;0.28;;;0.28;;
17638;SDS011;8938;53.546;9.954;2023-06-10T07:20:53;0.20;;;0.20;;
17638;SDS011;8938;53.546;9.954;2023-06-10T07:23:19;0.22;;;0.22;;
17638;SDS011;8938;53.546;9.954;2023-06-10T07:25:44;0.30;;;0.30;;
17638;SDS011;8938;53.546;9.954;2023-06-10T07:28:10;0.20;;;0.20;;
17638;SDS011;8938;53.546;9.954;2023-06-10T07:30:35;0.20;;;0.20;;
17638;SDS011;8938;53.546;9.954;2023-06-10T07:33:01;0.20;;;0.20;;
17638;SDS011;8938;53.546;9.954;2023-06-10T07:35:27;0.30;;;0.30;;
17638;SDS011;8938;53.546;9.954;2023-06-10T07:37:52;0.20;;;0.20;;
17638;SDS011;8938;53.546;9.954;2023-06-10T07:40:18;0.20;;;0.20;;
17638;SDS011;8938;53.546;9.954;2023-06-10T07:42:43;0.30;;;0.30;;
17638;SDS011;8938;53.546;9.954;2023-06-10T07:45:09;0.20;;;0.20;;
17638;SDS011;8938;53.546;9.954;2023-06-10T07:47:35;0.20;;;0.20;;
17638;SDS011;8938;53.546;9.954;2023-06-10T07:50:00;0.30;;;0.30;;
17638;SDS011;8938;53.546;9.954;2023-06-10T07:52:26;0.22;;;0.22;;
17638;SDS011;8938;53.546;9.954;2023-06-10T07:54:53;0.20;;;0.20;;
17638;SDS011;8938;53.546;9.954;2023-06-10T07:57:19;0.20;;;0.20;;
17638;SDS011;8938;53.546;9.954;2023-06-10T07:59:47;0.20;;;0.20;;
17638;SDS011;8938;53.546;9.954;2023-06-10T08:02:12;0.25;;;0.25;;
17638;SDS011;8938;53.546;9.954;2023-06-10T08:04:38;0.20;;;0.20;;
17638;SDS011;8938;53.546;9.954;2023-06-10T08:07:03;0.20;;;0.20;;
17638;SDS011;8938;53.546;9.954;2023-06-10T08:09:29;0.10;;;0.10;;
17638;SDS011;8938;53.546;9.954;2023-06-10T08:11:55;0.20;;;0.20;;
17638;SDS011;8938;53.546;9.954;2023-06-10T08:14:20;0.25;;;0.25;;
17638;SDS011;8938;53.546;9.954;2023-06-10T08:16:46;0.30;;;0.30;;
17638;SDS011;8938;53.546;9.954;2023-06-10T08:19:12;0.20;;;0.20;;
17638;SDS011;8938;53.546;9.954;2023-06-10T08:21:37;0.10;;;0.10;;
17638;SDS011;8938;53.546;9.954;2023-06-10T08:24:04;0.30;;;0.30;;
17638;SDS011;8938;53.546;9.954;2023-06-10T08:26:31;0.30;;;0.30;;
17638;SDS011;8938;53.546;9.954;2023-06-10T08:28:56;0.30;;;0.30;;
17638;SDS011;8938;53.546;9.954;2023-06-10T08:31:22;0.13;;;0.13;;
17638;SDS011;8938;53.546;9.954;2023-06-10T08:33:47;0.30;;;0.30;;
17638;SDS011;8938;53.546;9.954;2023-06-10T08:36:14;0.30;;;0.30;;
17638;SDS011;8938;53.546;9.954;2023-06-10T08:38:39;0.20;;;0.20;;
17638;SDS011;8938;53.546;9.954;2023-06-10T08:41:05;0.20;;;0.20;;
17638;SDS011;8938;53.546;9.954;2023-06-10T08:43:42;0.20;;;0.20;;
17638;SDS011;8938;53.546;9.954;2023-06-10T08:46:12;0.20;;;0.20;;
17638;SDS011;8938;53.546;9.954;2023-06-10T08:48:41;0.20;;;0.20;;
17638;SDS011;8938;53.546;9.954;2023-06-10T08:51:09;0.28;;;0.28;;
17638;SDS011;8938;53.546;9.954;2023-06-10T08:53:36;0.20;;;0.20;;
17638;SDS011;8938;53.546;9.954;2023-06-10T08:56:08;0.20;;;0.20;;
17638;SDS011;8938;53.546;9.954;2023-06-10T08:58:35;0.20;;;0.20;;
17638;SDS011;8938;53.546;9.954;2023-06-10T09:01:06;0.20;;;0.20;;
17638;SDS011;8938;53.546;9.954;2023-06-10T09:03:33;0.22;;;0.22;;
17638;SDS011;8938;53.546;9.954;2023-06-10T09:06:02;0.28;;;0.28;;
17638;SDS011;8938;53.546;9.954;2023-06-10T09:08:29;0.20;;;0.20;;
17638;SDS011;8938;53.546;9.954;2023-06-10T09:10:55;0.40;;;0.40;;
17638;SDS011;8938;53.546;9.954;2023-06-10T09:13:22;0.50;;;0.50;;
17638;SDS011;8938;53.546;9.954;2023-06-10T09:15:48;0.40;;;0.40;;
17638;SDS011;8938;53.546;9.954;2023-06-10T09:18:14;0.30;;;0.30;;
17638;SDS011;8938;53.546;9.954;2023-06-10T09:20:39;0.30;;;0.30;;
17638;SDS011;8938;53.546;9.954;2023-06-10T09:23:06;0.38;;;0.38;;
17638;SDS011;8938;53.546;9.954;2023-06-10T09:25:36;0.30;;;0.30;;
17638;SDS011;8938;53.546;9.954;2023-06-10T09:28:03;0.40;;;0.40;;
17638;SDS011;8938;53.546;9.954;2023-06-10T09:30:33;0.30;;;0.30;;
17638;SDS011;8938;53.546;9.954;2023-06-10T09:33:02;0.30;;;0.30;;
17638;SDS011;8938;53.546;9.954;2023-06-10T09:35:34;0.40;;;0.40;;
17638;SDS011;8938;53.546;9.954;2023-06-10T09:38:00;0.30;;;0.30;;
17638;SDS011;8938;53.546;9.954;2023-06-10T09:40:27;0.20;;;0.20;;
17638;SDS011;8938;53.546;9.954;2023-06-10T09:42:54;0.30;;;0.30;;
17638;SDS011;8938;53.546;9.954;2023-06-10T09:45:21;0.20;;;0.20;;
17638;SDS011;8938;53.546;9.954;2023-06-10T09:47:47;0.22;;;0.22;;
17638;SDS011;8938;53.546;9.954;2023-06-10T09:50:16;0.20;;;0.20;;
17638;SDS011;8938;53.546;9.954;2023-06-10T09:52:42;0.28;;;0.28;;
17638;SDS011;8938;53.546;9.954;2023-06-10T09:55:08;0.30;;;0.30;;
17638;SDS011;8938;53.546;9.954;2023-06-10T09:57:35;0.20;;;0.20;;
17638;SDS011;8938;53.546;9.954;2023-06-10T10:00:08;0.20;;;0.20;;
17638;SDS011;8938;53.546;9.954;2023-06-10T10:02:47;0.20;;;0.20;;
17638;SDS011;8938;53.546;9.954;2023-06-10T10:05:17;0.20;;;0.20;;
17638;SDS011;8938;53.546;9.954;2023-06-10T10:07:44;0.10;;;0.10;;
17638;SDS011;8938;53.546;9.954;2023-06-10T10:10:11;0.20;;;0.20;;
17638;SDS011;8938;53.546;9.954;2023-06-10T10:12:38;0.10;;;0.10;;
17638;SDS011;8938;53.546;9.954;2023-06-10T10:15:08;0.10;;;0.10;;
17638;SDS011;8938;53.546;9.954;2023-06-10T10:17:46;0.10;;;0.10;;
17638;SDS011;8938;53.546;9.954;2023-06-10T10:20:18;0.10;;;0.10;;
17638;SDS011;8938;53.546;9.954;2023-06-10T10:22:47;0.20;;;0.20;;
17638;SDS011;8938;53.546;9.954;2023-06-10T10:25:16;0.20;;;0.20;;
17638;SDS011;8938;53.546;9.954;2023-06-10T10:28:21;0.20;;;0.20;;
17638;SDS011;8938;53.546;9.954;2023-06-10T10:30:51;0.10;;;0.10;;
17638;SDS011;8938;53.546;9.954;2023-06-10T10:33:20;0.20;;;0.20;;
17638;SDS011;8938;53.546;9.954;2023-06-10T10:35:50;0.10;;;0.10;;
17638;SDS011;8938;53.546;9.954;2023-06-10T10:38:16;0.20;;;0.20;;
17638;SDS011;8938;53.546;9.954;2023-06-10T10:40:42;0.10;;;0.10;;
17638;SDS011;8938;53.546;9.954;2023-06-10T10:43:09;0.10;;;0.10;;
17638;SDS011;8938;53.546;9.954;2023-06-10T10:45:36;0.20;;;0.20;;
17638;SDS011;8938;53.546;9.954;2023-06-10T10:48:07;0.13;;;0.13;;
17638;SDS011;8938;53.546;9.954;2023-06-10T10:50:36;0.20;;;0.20;;
17638;SDS011;8938;53.546;9.954;2023-06-10T10:53:03;0.20;;;0.20;;
17638;SDS011;8938;53.546;9.954;2023-06-10T10:55:29;0.20;;;0.20;;
17638;SDS011;8938;53.546;9.954;2023-06-10T10:57:56;0.20;;;0.20;;
17638;SDS011;8938;53.546;9.954;2023-06-10T11:00:29;0.17;;;0.17;;
17638;SDS011;8938;53.546;9.954;2023-06-10T11:03:16;0.20;;;0.20;;
17638;SDS011;8938;53.546;9.954;2023-06-10T11:05:44;0.20;;;0.20;;
17638;SDS011;8938;53.546;9.954;2023-06-10T11:08:14;0.10;;;0.10;;
17638;SDS011;8938;53.546;9.954;2023-06-10T11:11:00;0.13;;;0.13;;
17638;SDS011;8938;53.546;9.954;2023-06-10T11:13:42;0.10;;;0.10;;
17638;SDS011;8938;53.546;9.954;2023-06-10T11:16:41;0.30;;;0.30;;
17638;SDS011;8938;53.546;9.954;2023-06-10T11:19:08;0.20;;;0.20;;
17638;SDS011;8938;53.546;9.954;2023-06-10T11:22:20;0.17;;;0.17;;
17638;SDS011;8938;53.546;9.954;2023-06-10T11:24:27;0.10;;;0.10;;
17638;SDS011;8938;53.546;9.954;2023-06-10T11:26:54;0.20;;;0.20;;
17638;SDS011;8938;53.546;9.954;2023-06-10T11:29:20;0.20;;;0.20;;
17638;SDS011;8938;53.546;9.954;2023-06-10T11:31:48;0.20;;;0.20;;
17638;SDS011;8938;53.546;9.954;2023-06-10T11:34:15;0.10;;;0.10;;
17638;SDS011;8938;53.546;9.954;2023-06-10T11:36:48;0.20;;;0.20;;
17638;SDS011;8938;53.546;9.954;2023-06-10T11:39:14;0.20;;;0.20;;
17638;SDS011;8938;53.546;9.954;2023-06-10T11:41:40;0.20;;;0.20;;
17638;SDS011;8938;53.546;9.954;2023-06-10T11:44:09;0.20;;;0.20;;
17638;SDS011;8938;53.546;9.954;2023-06-10T11:46:36;0.13;;;0.13;;
17638;SDS011;8938;53.546;9.954;2023-06-10T11:49:02;0.10;;;0.10;;
17638;SDS011;8938;53.546;9.954;2023-06-10T11:51:34;0.20;;;0.20;;
17638;SDS011;8938;53.546;9.954;2023-06-10T11:54:02;0.20;;;0.20;;
17638;SDS011;8938;53.546;9.954;2023-06-10T11:56:29;0.20;;;0.20;;
17638;SDS011;8938;53.546;9.954;2023-06-10T11:58:58;0.20;;;0.20;;
17638;SDS011;8938;53.546;9.954;2023-06-10T12:01:43;0.20;;;0.20;;
17638;SDS011;8938;53.546;9.954;2023-06-10T12:04:13;0.20;;;0.20;;
17638;SDS011;8938;53.546;9.954;2023-06-10T12:06:44;0.20;;;0.20;;
17638;SDS011;8938;53.546;9.954;2023-06-10T12:11:45;0.10;;;0.10;;
17638;SDS011;8938;53.546;9.954;2023-06-10T12:14:13;0.20;;;0.20;;
17638;SDS011;8938;53.546;9.954;2023-06-10T12:16:39;0.10;;;0.10;;
17638;SDS011;8938;53.546;9.954;2023-06-10T12:19:05;0.20;;;0.20;;
17638;SDS011;8938;53.546;9.954;2023-06-10T12:21:32;0.10;;;0.10;;
17638;SDS011;8938;53.546;9.954;2023-06-10T12:24:10;0.17;;;0.17;;
17638;SDS011;8938;53.546;9.954;2023-06-10T12:26:36;0.20;;;0.20;;
17638;SDS011;8938;53.546;9.954;2023-06-10T12:29:16;0.10;;;0.10;;
17638;SDS011;8938;53.546;9.954;2023-06-10T12:31:52;0.20;;;0.20;;
17638;SDS011;8938;53.546;9.954;2023-06-10T12:36:55;0.10;;;0.10;;
17638;SDS011;8938;53.546;9.954;2023-06-10T12:39:21;0.10;;;0.10;;
17638;SDS011;8938;53.546;9.954;2023-06-10T12:41:47;0.10;;;0.10;;
17638;SDS011;8938;53.546;9.954;2023-06-10T12:44:13;0.22;;;0.22;;
17638;SDS011;8938;53.546;9.954;2023-06-10T12:46:39;0.20;;;0.20;;
17638;SDS011;8938;53.546;9.954;2023-06-10T12:49:04;0.10;;;0.10;;
17638;SDS011;8938;53.546;9.954;2023-06-10T12:51:30;0.20;;;0.20;;
17638;SDS011;8938;53.546;9.954;2023-06-10T12:53:56;0.20;;;0.20;;
17638;SDS011;8938;53.546;9.954;2023-06-10T12:56:22;0.10;;;0.10;;
17638;SDS011;8938;53.546;9.954;2023-06-10T12:58:48;0.10;;;0.10;;
17638;SDS011;8938;53.546;9.954;2023-06-10T13:01:14;0.20;;;0.20;;
17638;SDS011;8938;53.546;9.954;2023-06-10T13:03:41;0.10;;;0.10;;
17638;SDS011;8938;53.546;9.954;2023-06-10T13:06:06;0.10;;;0.10;;
17638;SDS011;8938;53.546;9.954;2023-06-10T13:08:32;0.10;;;0.10;;
17638;SDS011;8938;53.546;9.954;2023-06-10T13:10:58;0.10;;;0.10;;
17638;SDS011;8938;53.546;9.954;2023-06-10T13:13:23;0.10;;;0.10;;
17638;SDS011;8938;53.546;9.954;2023-06-10T13:15:49;0.10;;;0.10;;
17638;SDS011;8938;53.546;9.954;2023-06-10T13:18:15;0.10;;;0.10;;
17638;SDS011;8938;53.546;9.954;2023-06-10T13:20:42;0.10;;;0.10;;
17638;SDS011;8938;53.546;9.954;2023-06-10T13:23:08;0.10;;;0.10;;
17638;SDS011;8938;53.546;9.954;2023-06-10T13:25:34;0.10;;;0.10;;
17638;SDS011;8938;53.546;9.954;2023-06-10T13:27:59;0.20;;;0.20;;
17638;SDS011;8938;53.546;9.954;2023-06-10T13:30:26;0.20;;;0.20;;
17638;SDS011;8938;53.546;9.954;2023-06-10T13:32:51;0.13;;;0.13;;
17638;SDS011;8938;53.546;9.954;2023-06-10T13:35:17;0.10;;;0.10;;
17638;SDS011;8938;53.546;9.954;2023-06-10T13:37:42;0.10;;;0.10;;
17638;SDS011;8938;53.546;9.954;2023-06-10T13:40:08;0.10;;;0.10;;
17638;SDS011;8938;53.546;9.954;2023-06-10T13:42:34;0.10;;;0.10;;
17638;SDS011;8938;53.546;9.954;2023-06-10T13:45:01;0.20;;;0.20;;
17638;SDS011;8938;53.546;9.954;2023-06-10T13:47:29;0.20;;;0.20;;
17638;SDS011;8938;53.546;9.954;2023-06-10T13:49:54;0.17;;;0.17;;
17638;SDS011;8938;53.546;9.954;2023-06-10T13:52:20;0.10;;;0.10;;
17638;SDS011;8938;53.546;9.954;2023-06-10T13:54:45;0.20;;;0.20;;
17638;SDS011;8938;53.546;9.954;2023-06-10T13:57:11;0.20;;;0.20;;
17638;SDS011;8938;53.546;9.954;2023-06-10T13:59:36;0.20;;;0.20;;
17638;SDS011;8938;53.546;9.954;2023-06-10T14:02:02;0.17;;;0.17;;
17638;SDS011;8938;53.546;9.954;2023-06-10T14:04:28;0.10;;;0.10;;
17638;SDS011;8938;53.546;9.954;2023-06-10T14:06:54;0.10;;;0.10;;
17638;SDS011;8938;53.546;9.954;2023-06-10T14:09:21;0.10;;;0.10;;
17638;SDS011;8938;53.546;9.954;2023-06-10T14:11:47;0.17;;;0.17;;
17638;SDS011;8938;53.546;9.954;2023-06-10T14:14:12;0.10;;;0.10;;
17638;SDS011;8938;53.546;9.954;2023-06-10T14:16:39;0.10;;;0.10;;
17638;SDS011;8938;53.546;9.954;2023-06-10T14:19:05;0.10;;;0.10;;
17638;SDS011;8938;53.546;9.954;2023-06-10T14:21:30;0.10;;;0.10;;
17638;SDS011;8938;53.546;9.954;2023-06-10T14:23:56;0.10;;;0.10;;
17638;SDS011;8938;53.546;9.954;2023-06-10T14:26:21;0.10;;;0.10;;
17638;SDS011;8938;53.546;9.954;2023-06-10T14:28:47;0.20;;;0.20;;
17638;SDS011;8938;53.546;9.954;2023-06-10T14:31:15;0.10;;;0.10;;
17638;SDS011;8938;53.546;9.954;2023-06-10T14:33:40;0.20;;;0.20;;
17638;SDS011;8938;53.546;9.954;2023-06-10T14:36:08;0.20;;;0.20;;
17638;SDS011;8938;53.546;9.954;2023-06-10T14:38:34;0.10;;;0.10;;
17638;SDS011;8938;53.546;9.954;2023-06-10T14:40:59;0.10;;;0.10;;
17638;SDS011;8938;53.546;9.954;2023-06-10T14:43:25;0.20;;;0.20;;
17638;SDS011;8938;53.546;9.954;2023-06-10T14:45:50;0.17;;;0.17;;
17638;SDS011;8938;53.546;9.954;2023-06-10T14:48:16;0.10;;;0.10;;
17638;SDS011;8938;53.546;9.954;2023-06-10T14:50:41;0.10;;;0.10;;
17638;SDS011;8938;53.546;9.954;2023-06-10T14:53:10;0.10;;;0.10;;
17638;SDS011;8938;53.546;9.954;2023-06-10T14:55:35;0.10;;;0.10;;
17638;SDS011;8938;53.546;9.954;2023-06-10T14:58:01;0.20;;;0.20;;
17638;SDS011;8938;53.546;9.954;2023-06-10T15:00:26;0.13;;;0.13;;
17638;SDS011;8938;53.546;9.954;2023-06-10T15:02:52;0.10;;;0.10;;
17638;SDS011;8938;53.546;9.954;2023-06-10T15:05:20;0.10;;;0.10;;
17638;SDS011;8938;53.546;9.954;2023-06-10T15:07:46;0.20;;;0.20;;
17638;SDS011;8938;53.546;9.954;2023-06-10T15:10:11;0.20;;;0.20;;